sensor_id;sensor_type;location;lat;lon;timestamp;pressure;altitude;pressure_sealevel;temperature;humidity
38452;BME280;24231;52.514;13.438;2023-01-29T00:03:04;102230.04;;;-0.58;59.81
38452;BME280;24231;52.514;13.438;2023-01-29T00:05:31;102223.06;;;1.51;54.34
38452;BME280;24231;52.514;13.438;2023-01-29T00:08:01;102226.85;;;0.46;57.30
38452;BME280;24231;52.514;13.438;2023-01-29T00:10:28;102228.43;;;0.10;58.44
38452;BME280;24231;52.514;13.438;2023-01-29T00:12:55;102223.69;;;0.39;58.26
38452;BME280;24231;52.514;13.438;2023-01-29T00:15:22;102227.06;;;-0.47;61.15
38452;BME280;24231;52.514;13.438;2023-01-29T00:17:49;102229.26;;;0.24;60.14
38452;BME280;24231;52.514;13.438;2023-01-29T00:20:16;102230.19;;;0.31;58.85
38452;BME280;24231;52.514;13.438;2023-01-29T00:22:44;102227.85;;;0.43;58.77
38452;BME280;24231;52.514;13.438;2023-01-29T00:25:11;102228.50;;;0.57;58.94
38452;BME280;24231;52.514;13.438;2023-01-29T00:27:38;102224.54;;;-0.21;61.34
38452;BME280;24231;52.514;13.438;2023-01-29T00:30:06;102225.61;;;0.04;61.41
38452;BME280;24231;52.514;13.438;2023-01-29T00:32:34;102225.75;;;-0.36;62.64
38452;BME280;24231;52.514;13.438;2023-01-29T00:35:01;102223.33;;;-0.30;62.24
38452;BME280;24231;52.514;13.438;2023-01-29T00:37:28;102220.16;;;0.36;60.68
38452;BME280;24231;52.514;13.438;2023-01-29T00:39:55;102210.18;;;0.84;57.84
38452;BME280;24231;52.514;13.438;2023-01-29T00:42:23;102204.38;;;0.01;61.28
38452;BME280;24231;52.514;13.438;2023-01-29T00:44:50;102200.28;;;0.47;59.57
38452;BME280;24231;52.514;13.438;2023-01-29T00:47:18;102195.71;;;0.27;60.21
38452;BME280;24231;52.514;13.438;2023-01-29T00:49:45;102198.11;;;1.30;57.88
38452;BME280;24231;52.514;13.438;2023-01-29T00:52:12;102197.74;;;0.73;58.40
38452;BME280;24231;52.514;13.438;2023-01-29T00:54:39;102197.53;;;1.10;58.02
38452;BME280;24231;52.514;13.438;2023-01-29T00:57:07;102196.22;;;0.51;60.25
38452;BME280;24231;52.514;13.438;2023-01-29T00:59:34;102193.65;;;-0.56;63.42
38452;BME280;24231;52.514;13.438;2023-01-29T01:02:01;102198.10;;;0.14;62.15
38452;BME280;24231;52.514;13.438;2023-01-29T01:04:28;102194.15;;;1.00;59.15
38452;BME280;24231;52.514;13.438;2023-01-29T01:06:56;102196.41;;;0.48;59.56
38452;BME280;24231;52.514;13.438;2023-01-29T01:09:23;102203.42;;;0.53;60.65
38452;BME280;24231;52.514;13.438;2023-01-29T01:11:50;102201.87;;;0.86;59.62
38452;BME280;24231;52.514;13.438;2023-01-29T01:14:18;102200.70;;;0.55;59.59
38452;BME280;24231;52.514;13.438;2023-01-29T01:16:46;102197.92;;;0.67;59.58
38452;BME280;24231;52.514;13.438;2023-01-29T01:19:14;102194.84;;;-0.20;63.16
38452;BME280;24231;52.514;13.438;2023-01-29T01:21:42;102197.32;;;0.66;59.81
38452;BME280;24231;52.514;13.438;2023-01-29T01:24:10;102195.20;;;0.85;59.16
38452;BME280;24231;52.514;13.438;2023-01-29T01:26:37;102199.61;;;0.57;60.11
38452;BME280;24231;52.514;13.438;2023-01-29T01:29:04;102208.31;;;0.33;61.96
38452;BME280;24231;52.514;13.438;2023-01-29T01:31:32;102200.98;;;0.85;60.16
38452;BME280;24231;52.514;13.438;2023-01-29T01:35:10;102193.03;;;1.10;58.94
38452;BME280;24231;52.514;13.438;2023-01-29T01:37:37;102194.31;;;-0.07;63.11
38452;BME280;24231;52.514;13.438;2023-01-29T01:40:07;102196.13;;;1.43;59.48
38452;BME280;24231;52.514;13.438;2023-01-29T01:42:37;102190.80;;;2.05;57.05
38452;BME280;24231;52.514;13.438;2023-01-29T01:45:07;102198.88;;;0.88;60.11
38452;BME280;24231;52.514;13.438;2023-01-29T01:47:38;102192.59;;;1.60;58.78
38452;BME280;24231;52.514;13.438;2023-01-29T01:50:10;102194.27;;;1.27;58.46
38452;BME280;24231;52.514;13.438;2023-01-29T01:52:41;102193.47;;;1.29;59.64
38452;BME280;24231;52.514;13.438;2023-01-29T01:55:13;102195.81;;;2.03;56.80
38452;BME280;24231;52.514;13.438;2023-01-29T01:57:42;102195.97;;;0.65;62.35
38452;BME280;24231;52.514;13.438;2023-01-29T02:00:15;102192.48;;;0.28;63.45
38452;BME280;24231;52.514;13.438;2023-01-29T02:02:45;102187.24;;;1.18;61.27
38452;BME280;24231;52.514;13.438;2023-01-29T02:05:13;102186.89;;;0.12;64.20
38452;BME280;24231;52.514;13.438;2023-01-29T02:07:42;102181.05;;;0.61;62.87
38452;BME280;24231;52.514;13.438;2023-01-29T02:10:13;102172.15;;;1.58;59.45
38452;BME280;24231;52.514;13.438;2023-01-29T02:12:43;102177.04;;;0.73;62.71
38452;BME280;24231;52.514;13.438;2023-01-29T02:15:12;102173.29;;;0.62;63.03
38452;BME280;24231;52.514;13.438;2023-01-29T02:17:40;102175.23;;;-0.14;65.12
38452;BME280;24231;52.514;13.438;2023-01-29T02:20:11;102175.53;;;0.82;62.16
38452;BME280;24231;52.514;13.438;2023-01-29T02:22:56;102176.98;;;0.39;64.21
38452;BME280;24231;52.514;13.438;2023-01-29T02:25:46;102168.61;;;1.43;60.44
38452;BME280;24231;52.514;13.438;2023-01-29T02:28:24;102164.18;;;0.71;61.58
38452;BME280;24231;52.514;13.438;2023-01-29T02:31:03;102162.19;;;0.45;63.17
38452;BME280;24231;52.514;13.438;2023-01-29T02:33:42;102155.24;;;1.20;60.66
38452;BME280;24231;52.514;13.438;2023-01-29T02:36:21;102161.22;;;0.99;62.07
38452;BME280;24231;52.514;13.438;2023-01-29T02:38:58;102169.59;;;-0.43;66.75
38452;BME280;24231;52.514;13.438;2023-01-29T02:41:33;102165.70;;;-0.04;65.68
38452;BME280;24231;52.514;13.438;2023-01-29T02:44:09;102172.54;;;0.63;63.93
38452;BME280;24231;52.514;13.438;2023-01-29T02:46:47;102169.00;;;0.82;63.46
38452;BME280;24231;52.514;13.438;2023-01-29T02:49:22;102161.90;;;1.02;61.92
38452;BME280;24231;52.514;13.438;2023-01-29T02:51:57;102157.42;;;0.99;61.27
38452;BME280;24231;52.514;13.438;2023-01-29T02:54:30;102159.31;;;0.30;64.08
38452;BME280;24231;52.514;13.438;2023-01-29T02:57:04;102154.92;;;-0.19;66.95
38452;BME280;24231;52.514;13.438;2023-01-29T02:59:38;102147.77;;;1.12;61.88
38452;BME280;24231;52.514;13.438;2023-01-29T03:02:10;102149.54;;;0.82;62.62
38452;BME280;24231;52.514;13.438;2023-01-29T03:04:43;102148.49;;;1.22;62.17
38452;BME280;24231;52.514;13.438;2023-01-29T03:07:16;102145.37;;;0.61;63.73
38452;BME280;24231;52.514;13.438;2023-01-29T03:09:48;102147.43;;;0.78;62.53
38452;BME280;24231;52.514;13.438;2023-01-29T03:12:21;102146.65;;;1.74;60.12
38452;BME280;24231;52.514;13.438;2023-01-29T03:14:50;102143.97;;;0.79;62.91
38452;BME280;24231;52.514;13.438;2023-01-29T03:17:18;102137.65;;;2.22;58.61
38452;BME280;24231;52.514;13.438;2023-01-29T03:19:48;102136.80;;;0.79;62.53
38452;BME280;24231;52.514;13.438;2023-01-29T03:22:16;102137.36;;;1.52;60.44
38452;BME280;24231;52.514;13.438;2023-01-29T03:24:46;102133.58;;;1.57;60.91
38452;BME280;24231;52.514;13.438;2023-01-29T03:27:17;102131.47;;;2.43;57.90
38452;BME280;24231;52.514;13.438;2023-01-29T03:29:47;102135.24;;;1.79;60.01
38452;BME280;24231;52.514;13.438;2023-01-29T03:32:18;102127.59;;;2.46;58.18
38452;BME280;24231;52.514;13.438;2023-01-29T03:34:48;102130.70;;;0.52;64.66
38452;BME280;24231;52.514;13.438;2023-01-29T03:37:23;102116.39;;;1.06;63.39
38452;BME280;24231;52.514;13.438;2023-01-29T03:39:52;102118.17;;;0.39;63.81
